Time,TemperatureF,DewpointF,PressureIn,WindDirection,WindDirectionDegrees,WindSpeedMPH,WindSpeedGustMPH,Humidity,HourlyPrecipIn,Conditions,Clouds,dailyrainin,SolarRadiationWatts/m^2,SoftwareType,DateUTC
2013-03-06 00:01:00,31.0,22.0,-100.00,SW,217,2.0,3.0,70,0.00,,,0.00,1.000000,,2013-03-06 07:01:00,
2013-03-06 00:22:00,31.0,22.0,-100.00,SW,217,2.0,3.0,70,0.00,,,0.00,1.000000,,2013-03-06 07:22:00,
2013-03-06 00:32:00,31.0,22.0,-100.00,SW,217,2.0,3.0,70,0.00,,,0.00,1.000000,,2013-03-06 07:32:00,
2013-03-06 00:42:00,31.0,22.0,-100.00,SW,217,2.0,3.0,70,0.00,,,0.00,1.000000,,2013-03-06 07:42:00,
2013-03-06 00:52:00,31.0,22.0,-100.00,SW,217,2.0,3.0,70,0.00,,,0.00,1.000000,,2013-03-06 07:52:00,
2013-03-06 01:01:00,30.0,22.0,-100.00,SW,233,1.0,2.0,73,0.00,,,-99.99,1.000000,,2013-03-06 08:01:00,
2013-03-06 01:32:00,30.0,22.0,-100.00,SW,233,1.0,2.0,73,0.00,,,-99.99,1.000000,,2013-03-06 08:32:00,
2013-03-06 01:42:00,30.0,22.0,-100.00,SW,233,1.0,2.0,73,0.00,,,-99.99,1.000000,,2013-03-06 08:42:00,
2013-03-06 01:52:00,30.0,22.0,-100.00,SW,233,1.0,2.0,73,0.00,,,-99.99,1.000000,,2013-03-06 08:52:00,
2013-03-06 02:01:00,29.0,22.0,-100.00,SSW,207,1.0,2.0,74,0.00,,,0.00,1.000000,,2013-03-06 09:01:00,
2013-03-06 02:32:00,29.0,22.0,-100.00,SSW,207,1.0,2.0,74,0.00,,,0.00,1.000000,,2013-03-06 09:32:00,
2013-03-06 02:42:00,29.0,22.0,-100.00,SSW,207,1.0,2.0,74,0.00,,,0.00,1.000000,,2013-03-06 09:42:00,
2013-03-06 02:52:00,29.0,22.0,-100.00,SSW,207,1.0,2.0,74,0.00,,,0.00,1.000000,,2013-03-06 09:52:00,
2013-03-06 03:01:00,29.0,22.0,-100.00,SW,235,0.0,3.0,75,0.00,,,0.00,1.000000,,2013-03-06 10:01:00,
2013-03-06 03:22:00,29.0,22.0,-100.00,SW,235,0.0,3.0,75,0.00,,,0.00,1.000000,,2013-03-06 10:22:00,
2013-03-06 03:32:00,29.0,22.0,-100.00,SW,235,0.0,3.0,75,0.00,,,0.00,1.000000,,2013-03-06 10:32:00,
2013-03-06 03:42:00,29.0,22.0,-100.00,SW,235,0.0,3.0,75,0.00,,,0.00,1.000000,,2013-03-06 10:42:00,
2013-03-06 03:52:00,29.0,22.0,-100.00,SW,235,0.0,3.0,75,0.00,,,0.00,1.000000,,2013-03-06 10:52:00,
2013-03-06 04:01:00,29.0,23.0,-100.00,SW,226,0.0,2.0,77,0.00,,,0.00,1.000000,,2013-03-06 11:01:00,
2013-03-06 04:23:00,29.0,23.0,-100.00,SW,226,0.0,2.0,77,0.00,,,0.00,1.000000,,2013-03-06 11:23:00,
2013-03-06 04:32:00,29.0,23.0,-100.00,SW,226,0.0,2.0,77,0.00,,,0.00,1.000000,,2013-03-06 11:32:00,
2013-03-06 04:42:00,29.0,23.0,-100.00,SW,226,0.0,2.0,77,0.00,,,0.00,1.000000,,2013-03-06 11:42:00,
2013-03-06 04:52:00,29.0,23.0,-100.00,SW,226,0.0,2.0,77,0.00,,,0.00,1.000000,,2013-03-06 11:52:00,
2013-03-06 05:01:00,28.0,22.0,-100.00,SSW,194,2.0,4.0,77,0.00,,,0.00,1.000000,,2013-03-06 12:01:00,
2013-03-06 05:33:00,28.0,22.0,-100.00,SSW,194,2.0,4.0,77,0.00,,,0.00,1.000000,,2013-03-06 12:33:00,
2013-03-06 05:43:00,28.0,22.0,-100.00,SSW,194,2.0,4.0,77,0.00,,,0.00,1.000000,,2013-03-06 12:43:00,
2013-03-06 05:52:00,28.0,22.0,-100.00,SSW,194,2.0,4.0,77,0.00,,,0.00,1.000000,,2013-03-06 12:52:00,
2013-03-06 06:01:00,28.0,22.0,-100.00,SW,230,2.0,4.0,78,0.00,,,0.00,1.000000,,2013-03-06 13:01:00,
2013-03-06 06:32:00,28.0,22.0,-100.00,SW,230,2.0,4.0,78,0.00,,,0.00,1.000000,,2013-03-06 13:32:00,
2013-03-06 06:42:00,28.0,22.0,-100.00,SW,230,2.0,4.0,78,0.00,,,0.00,1.000000,,2013-03-06 13:42:00,
2013-03-06 06:52:00,28.0,22.0,-100.00,SW,230,2.0,4.0,78,0.00,,,0.00,1.000000,,2013-03-06 13:52:00,
2013-03-06 07:01:00,29.0,23.0,-100.00,SW,219,1.0,4.0,78,0.00,,,0.00,1.000000,,2013-03-06 14:01:00,
2013-03-06 07:32:00,29.0,23.0,-100.00,SW,219,1.0,4.0,78,0.00,,,0.00,1.000000,,2013-03-06 14:32:00,
2013-03-06 07:42:00,29.0,23.0,-100.00,SW,219,1.0,4.0,78,0.00,,,0.00,1.000000,,2013-03-06 14:42:00,
2013-03-06 07:52:00,29.0,23.0,-100.00,SW,219,1.0,4.0,78,0.00,,,0.00,1.000000,,2013-03-06 14:52:00,
2013-03-06 08:01:00,30.0,24.0,-100.00,SSW,209,2.0,4.0,77,0.00,,,0.00,4.000000,,2013-03-06 15:01:00,
2013-03-06 08:22:00,30.0,24.0,-100.00,SSW,209,2.0,4.0,77,0.00,,,0.00,4.000000,,2013-03-06 15:22:00,
2013-03-06 08:32:00,30.0,24.0,-100.00,SSW,209,2.0,4.0,77,0.00,,,0.00,4.000000,,2013-03-06 15:32:00,
2013-03-06 08:42:00,30.0,24.0,-100.00,SSW,209,2.0,4.0,77,0.00,,,0.00,4.000000,,2013-03-06 15:42:00,
2013-03-06 08:52:00,30.0,24.0,-100.00,SSW,209,2.0,4.0,77,0.00,,,0.00,4.000000,,2013-03-06 15:52:00,
2013-03-06 09:01:00,29.0,26.0,-100.00,North,351,2.0,5.0,89,0.00,,,0.00,14.000000,,2013-03-06 16:01:00,
2013-03-06 09:32:00,29.0,26.0,-100.00,North,351,2.0,5.0,89,0.00,,,0.00,14.000000,,2013-03-06 16:32:00,
2013-03-06 09:42:00,29.0,26.0,-100.00,North,351,2.0,5.0,89,0.00,,,0.00,14.000000,,2013-03-06 16:42:00,
2013-03-06 09:52:00,29.0,26.0,-100.00,North,351,2.0,5.0,89,0.00,,,0.00,14.000000,,2013-03-06 16:52:00,
2013-03-06 10:01:00,30.0,28.0,-100.00,NNE,17,2.0,5.0,91,0.00,,,0.00,31.000000,,2013-03-06 17:01:00,
2013-03-06 10:22:00,30.0,28.0,-100.00,NNE,17,2.0,5.0,91,0.00,,,0.00,31.000000,,2013-03-06 17:22:00,
2013-03-06 10:32:00,30.0,28.0,-100.00,NNE,17,2.0,5.0,91,0.00,,,0.00,31.000000,,2013-03-06 17:32:00,
2013-03-06 10:42:00,30.0,28.0,-100.00,NNE,17,2.0,5.0,91,0.00,,,0.00,31.000000,,2013-03-06 17:42:00,
2013-03-06 10:52:00,30.0,28.0,-100.00,NNE,17,2.0,5.0,91,0.00,,,0.00,31.000000,,2013-03-06 17:52:00,
2013-03-06 11:01:00,35.0,31.0,-100.00,North,5,3.0,6.0,85,0.04,,,0.04,166.000000,,2013-03-06 18:01:00,
2013-03-06 11:32:00,35.0,31.0,-100.00,North,5,3.0,6.0,85,0.04,,,0.04,166.000000,,2013-03-06 18:32:00,
2013-03-06 11:42:00,35.0,31.0,-100.00,North,5,3.0,6.0,85,0.04,,,0.04,166.000000,,2013-03-06 18:42:00,
2013-03-06 11:52:00,35.0,31.0,-100.00,North,5,3.0,6.0,85,0.04,,,0.04,166.000000,,2013-03-06 18:52:00,
2013-03-06 12:01:00,39.0,33.0,-100.00,NNE,30,3.0,7.0,80,0.00,,,0.04,347.000000,,2013-03-06 19:01:00,
2013-03-06 12:32:00,39.0,33.0,-100.00,NNE,30,3.0,7.0,80,0.00,,,0.04,347.000000,,2013-03-06 19:32:00,
2013-03-06 12:43:00,39.0,33.0,-100.00,NNE,30,3.0,7.0,80,0.00,,,0.04,347.000000,,2013-03-06 19:43:00,
2013-03-06 12:52:00,39.0,33.0,-100.00,NNE,30,3.0,7.0,80,0.00,,,0.04,347.000000,,2013-03-06 19:52:00,
2013-03-06 13:01:00,38.0,32.0,-100.00,North,8,3.0,5.0,79,0.00,,,-99.99,179.000000,,2013-03-06 20:01:00,
2013-03-06 13:22:00,38.0,32.0,-100.00,North,8,3.0,5.0,79,0.00,,,-99.99,179.000000,,2013-03-06 20:22:00,
2013-03-06 13:33:00,38.0,32.0,-100.00,North,8,3.0,5.0,79,0.00,,,-99.99,179.000000,,2013-03-06 20:33:00,
2013-03-06 13:42:00,38.0,32.0,-100.00,North,8,3.0,5.0,79,0.00,,,-99.99,179.000000,,2013-03-06 20:42:00,
2013-03-06 13:52:00,38.0,32.0,-100.00,North,8,3.0,5.0,79,0.00,,,-99.99,179.000000,,2013-03-06 20:52:00,
2013-03-06 14:01:00,38.0,34.0,-100.00,North,7,4.0,6.0,86,0.01,,,0.05,122.000000,,2013-03-06 21:01:00,
2013-03-06 14:32:00,38.0,34.0,-100.00,North,7,4.0,6.0,86,0.01,,,0.05,122.000000,,2013-03-06 21:32:00,
2013-03-06 14:42:00,38.0,34.0,-100.00,North,7,4.0,6.0,86,0.01,,,0.05,122.000000,,2013-03-06 21:42:00,
2013-03-06 14:52:00,38.0,34.0,-100.00,North,7,4.0,6.0,86,0.01,,,0.05,122.000000,,2013-03-06 21:52:00,
2013-03-06 15:01:00,40.0,35.0,-100.00,North,358,2.0,8.0,81,0.00,,,0.05,177.000000,,2013-03-06 22:01:00,
2013-03-06 15:32:00,40.0,35.0,-100.00,North,358,2.0,8.0,81,0.00,,,0.05,177.000000,,2013-03-06 22:32:00,
2013-03-06 15:42:00,40.0,35.0,-100.00,North,358,2.0,8.0,81,0.00,,,0.05,177.000000,,2013-03-06 22:42:00,
2013-03-06 15:52:00,40.0,35.0,-100.00,North,358,2.0,8.0,81,0.00,,,0.05,177.000000,,2013-03-06 22:52:00,
2013-03-06 16:01:00,40.0,33.0,-100.00,WNW,297,1.0,4.0,77,0.00,,,0.05,102.000000,,2013-03-06 23:01:00,
2013-03-06 16:32:00,40.0,33.0,-100.00,WNW,297,1.0,4.0,77,0.00,,,0.05,102.000000,,2013-03-06 23:32:00,
2013-03-06 16:42:00,40.0,33.0,-100.00,WNW,297,1.0,4.0,77,0.00,,,0.05,102.000000,,2013-03-06 23:42:00,
2013-03-06 16:52:00,40.0,33.0,-100.00,WNW,297,1.0,4.0,77,0.00,,,0.05,102.000000,,2013-03-06 23:52:00,
2013-03-06 17:01:00,41.0,34.0,-100.00,NNW,347,4.0,5.0,76,0.00,,,0.05,91.000000,,2013-03-07 00:01:00,
2013-03-06 17:22:00,41.0,34.0,-100.00,NNW,347,4.0,5.0,76,0.00,,,0.05,91.000000,,2013-03-07 00:22:00,
2013-03-06 17:32:00,41.0,34.0,-100.00,NNW,347,4.0,5.0,76,0.00,,,0.05,91.000000,,2013-03-07 00:32:00,
2013-03-06 17:42:00,41.0,34.0,-100.00,NNW,347,4.0,5.0,76,0.00,,,0.05,91.000000,,2013-03-07 00:42:00,
2013-03-06 17:52:00,41.0,34.0,-100.00,NNW,347,4.0,5.0,76,0.00,,,0.05,91.000000,,2013-03-07 00:52:00,
2013-03-06 18:01:00,36.0,30.0,-100.00,NE,45,3.0,9.0,80,0.04,,,0.09,9.000000,,2013-03-07 01:01:00,
2013-03-06 18:22:00,36.0,30.0,-100.00,NE,45,3.0,9.0,80,0.04,,,0.09,9.000000,,2013-03-07 01:22:00,
2013-03-06 18:32:00,36.0,30.0,-100.00,NE,45,3.0,9.0,80,0.04,,,0.09,9.000000,,2013-03-07 01:32:00,
2013-03-06 18:42:00,36.0,30.0,-100.00,NE,45,3.0,9.0,80,0.04,,,0.09,9.000000,,2013-03-07 01:42:00,
2013-03-06 18:52:00,36.0,30.0,-100.00,NE,45,3.0,9.0,80,0.04,,,0.09,9.000000,,2013-03-07 01:52:00,
2013-03-06 19:01:00,34.0,33.0,-100.00,WSW,246,2.0,5.0,96,0.03,,,0.12,3.000000,,2013-03-07 02:01:00,
2013-03-06 19:32:00,34.0,33.0,-100.00,WSW,246,2.0,5.0,96,0.03,,,0.12,3.000000,,2013-03-07 02:32:00,
2013-03-06 19:42:00,34.0,33.0,-100.00,WSW,246,2.0,5.0,96,0.03,,,0.12,3.000000,,2013-03-07 02:42:00,
2013-03-06 19:52:00,34.0,33.0,-100.00,WSW,246,2.0,5.0,96,0.03,,,0.12,3.000000,,2013-03-07 02:52:00,
2013-03-06 20:01:00,33.0,32.0,-100.00,WSW,256,2.0,5.0,97,0.00,,,0.12,1.000000,,2013-03-07 03:01:00,
2013-03-06 20:22:00,33.0,32.0,-100.00,WSW,256,2.0,5.0,97,0.00,,,0.12,1.000000,,2013-03-07 03:22:00,
2013-03-06 20:32:00,33.0,32.0,-100.00,WSW,256,2.0,5.0,97,0.00,,,0.12,1.000000,,2013-03-07 03:32:00,
2013-03-06 20:42:00,33.0,32.0,-100.00,WSW,256,2.0,5.0,97,0.00,,,0.12,1.000000,,2013-03-07 03:42:00,
2013-03-06 20:52:00,33.0,32.0,-100.00,WSW,256,2.0,5.0,97,0.00,,,0.12,1.000000,,2013-03-07 03:52:00,
2013-03-06 21:01:00,33.0,32.0,-100.00,SSW,208,1.0,4.0,98,0.00,,,0.12,1.000000,,2013-03-07 04:01:00,
2013-03-06 21:22:00,33.0,32.0,-100.00,SSW,208,1.0,4.0,98,0.00,,,0.12,1.000000,,2013-03-07 04:22:00,
2013-03-06 21:32:00,33.0,32.0,-100.00,SSW,208,1.0,4.0,98,0.00,,,0.12,1.000000,,2013-03-07 04:32:00,
2013-03-06 21:42:00,33.0,32.0,-100.00,SSW,208,1.0,4.0,98,0.00,,,0.12,1.000000,,2013-03-07 04:42:00,
2013-03-06 21:52:00,33.0,32.0,-100.00,SSW,208,1.0,4.0,98,0.00,,,0.12,1.000000,,2013-03-07 04:52:00,
2013-03-06 22:01:00,32.0,32.0,-100.00,SW,226,2.0,4.0,98,0.00,,,0.12,1.000000,,2013-03-07 05:01:00,
2013-03-06 22:32:00,32.0,32.0,-100.00,SW,226,2.0,4.0,98,0.00,,,0.12,1.000000,,2013-03-07 05:32:00,
2013-03-06 22:42:00,32.0,32.0,-100.00,SW,226,2.0,4.0,98,0.00,,,0.12,1.000000,,2013-03-07 05:42:00,
2013-03-06 22:52:00,32.0,32.0,-100.00,SW,226,2.0,4.0,98,0.00,,,0.12,1.000000,,2013-03-07 05:52:00,
2013-03-06 23:01:00,32.0,32.0,-100.00,SW,223,2.0,5.0,98,0.00,,,0.12,1.000000,,2013-03-07 06:01:00,
2013-03-06 23:32:00,32.0,32.0,-100.00,SW,223,2.0,5.0,98,0.00,,,0.12,1.000000,,2013-03-07 06:32:00,
2013-03-06 23:42:00,32.0,32.0,-100.00,SW,223,2.0,5.0,98,0.00,,,0.12,1.000000,,2013-03-07 06:42:00,
2013-03-06 23:52:00,32.0,32.0,-100.00,SW,223,2.0,5.0,98,0.00,,,0.12,1.000000,,2013-03-07 06:52:00,